Time;durP1;ratioP1;P1;durP2;ratioP2;P2;SDS_P1;SDS_P2;PMS_P1;PMS_P2;Temp;Humidity;BMP_temperature;BMP_pressure;BME280_temperature;BME280_humidity;BME280_pressure;Samples;Min_cycle;Max_cycle;Signal;HPM_P1;HPM_P2
2023/02/27 00:01:59;;;;;;;0.80;0.70;;;;;;;;;;4410229;28;20131;-58
2023/02/27 00:04:09;;;;;;;0.88;0.70;;;;;;;;;;4410765;28;20048;-57
2023/02/27 00:06:20;;;;;;;1.13;0.90;;;;;;;;;;4413145;28;20036;-58
2023/02/27 00:08:39;;;;;;;0.80;0.80;;;;;;;;;;4413871;28;20037;-59
2023/02/27 00:10:49;;;;;;;0.70;0.70;;;;;;;;;;4412588;28;20044;-58
2023/02/27 00:12:59;;;;;;;0.80;0.70;;;;;;;;;;4413477;28;20686;-58
2023/02/27 00:15:12;;;;;;;0.75;0.75;;;;;;;;;;4411653;28;20095;-58
2023/02/27 00:17:26;;;;;;;0.80;0.80;;;;;;;;;;4411796;28;20599;-58
2023/02/27 00:19:37;;;;;;;1.15;0.80;;;;;;;;;;4414532;28;21108;-57
2023/02/27 00:21:47;;;;;;;0.85;0.70;;;;;;;;;;4413909;28;20135;-59
2023/02/27 00:23:57;;;;;;;0.73;0.70;;;;;;;;;;4412964;28;20144;-59
2023/02/27 00:26:08;;;;;;;0.73;0.73;;;;;;;;;;4414378;28;20629;-59
2023/02/27 00:28:18;;;;;;;0.90;0.70;;;;;;;;;;4412791;28;20741;-56
2023/02/27 00:30:28;;;;;;;0.90;0.73;;;;;;;;;;4415179;28;20046;-57
2023/02/27 00:32:39;;;;;;;1.08;0.80;;;;;;;;;;4412480;28;20066;-56
2023/02/27 00:34:49;;;;;;;1.00;0.70;;;;;;;;;;4414750;28;20048;-56
2023/02/27 00:37:00;;;;;;;0.80;0.80;;;;;;;;;;4412431;28;20044;-56
2023/02/27 00:39:10;;;;;;;1.00;0.85;;;;;;;;;;4410064;28;20086;-57
2023/02/27 00:41:20;;;;;;;0.98;0.77;;;;;;;;;;4416194;28;20100;-57
2023/02/27 00:43:31;;;;;;;0.85;0.82;;;;;;;;;;4412440;28;20043;-58
2023/02/27 00:45:41;;;;;;;0.80;0.80;;;;;;;;;;4413519;28;20384;-57
2023/02/27 00:47:51;;;;;;;0.93;0.80;;;;;;;;;;4414179;28;20073;-57
2023/02/27 00:50:01;;;;;;;1.10;1.00;;;;;;;;;;4412639;28;20032;-57
2023/02/27 00:52:12;;;;;;;1.05;0.82;;;;;;;;;;4409709;28;20039;-58
2023/02/27 00:54:22;;;;;;;1.25;0.90;;;;;;;;;;4414044;28;20044;-57
2023/02/27 00:56:33;;;;;;;0.75;0.70;;;;;;;;;;4416690;28;20458;-57
2023/02/27 00:58:43;;;;;;;0.82;0.80;;;;;;;;;;4417161;28;20031;-58
2023/02/27 01:00:54;;;;;;;0.80;0.80;;;;;;;;;;4414958;28;20050;-57
2023/02/27 01:03:04;;;;;;;1.30;0.80;;;;;;;;;;4412760;28;20047;-57
2023/02/27 01:05:14;;;;;;;0.93;0.90;;;;;;;;;;4413011;28;20039;-57
2023/02/27 01:07:25;;;;;;;0.95;0.80;;;;;;;;;;4415159;28;20040;-57
2023/02/27 01:09:37;;;;;;;1.48;0.88;;;;;;;;;;4416222;28;20040;-58
2023/02/27 01:11:47;;;;;;;0.73;0.73;;;;;;;;;;4413499;28;20445;-58
2023/02/27 01:13:57;;;;;;;0.70;0.70;;;;;;;;;;4411425;28;20099;-57
2023/02/27 01:16:09;;;;;;;0.70;0.70;;;;;;;;;;4414465;28;20092;-57
2023/02/27 01:18:19;;;;;;;1.00;0.80;;;;;;;;;;4413609;28;20044;-57
2023/02/27 01:20:29;;;;;;;1.10;0.90;;;;;;;;;;4416980;28;20044;-57
2023/02/27 01:22:40;;;;;;;0.90;0.90;;;;;;;;;;4413425;28;20035;-57
2023/02/27 01:24:50;;;;;;;1.00;0.90;;;;;;;;;;4413363;28;20055;-57
2023/02/27 01:27:00;;;;;;;1.10;0.90;;;;;;;;;;4416994;28;20533;-57
2023/02/27 01:29:11;;;;;;;1.30;0.90;;;;;;;;;;4416963;28;20092;-57
2023/02/27 01:31:22;;;;;;;1.00;0.90;;;;;;;;;;4416385;28;20607;-57
2023/02/27 01:33:32;;;;;;;1.10;0.95;;;;;;;;;;4414007;28;20059;-57
2023/02/27 01:35:44;;;;;;;1.20;1.10;;;;;;;;;;4415077;28;20043;-58
2023/02/27 01:37:55;;;;;;;1.10;1.00;;;;;;;;;;4415918;28;20040;-58
2023/02/27 01:40:07;;;;;;;1.23;1.05;;;;;;;;;;4414062;28;20045;-57
2023/02/27 01:42:27;;;;;;;1.00;0.90;;;;;;;;;;4411999;28;20091;-57
2023/02/27 01:44:57;;;;;;;1.08;0.95;;;;;;;;;;4413614;28;20051;-57
2023/02/27 01:47:07;;;;;;;1.00;0.90;;;;;;;;;;4412696;28;20086;-57
2023/02/27 01:49:24;;;;;;;0.98;0.75;;;;;;;;;;4412542;28;20530;-57
2023/02/27 01:51:41;;;;;;;0.90;0.90;;;;;;;;;;4430579;28;20075;-57
2023/02/27 01:53:52;;;;;;;0.98;0.90;;;;;;;;;;4411479;28;20040;-57
2023/02/27 01:56:06;;;;;;;0.80;0.80;;;;;;;;;;4413662;28;20024;-57
2023/02/27 01:58:17;;;;;;;0.90;0.80;;;;;;;;;;4402513;28;20300;-57
2023/02/27 02:00:27;;;;;;;0.88;0.85;;;;;;;;;;4411690;28;20059;-57
2023/02/27 02:02:39;;;;;;;0.80;0.80;;;;;;;;;;4413956;28;20084;-57
2023/02/27 02:04:50;;;;;;;1.00;0.88;;;;;;;;;;4413182;28;20807;-58
2023/02/27 02:07:06;;;;;;;0.80;0.80;;;;;;;;;;4416021;28;20039;-58
2023/02/27 02:09:17;;;;;;;1.17;0.73;;;;;;;;;;4412737;28;20041;-58
2023/02/27 02:11:28;;;;;;;0.75;0.75;;;;;;;;;;4391330;28;20124;-57
2023/02/27 02:13:39;;;;;;;0.80;0.80;;;;;;;;;;4416031;28;20103;-57
2023/02/27 02:15:53;;;;;;;1.52;0.88;;;;;;;;;;4413771;28;20067;-57
2023/02/27 02:18:15;;;;;;;0.80;0.80;;;;;;;;;;4415777;28;20044;-57
2023/02/27 02:20:44;;;;;;;0.70;0.70;;;;;;;;;;4427455;28;20091;-57
2023/02/27 02:23:13;;;;;;;0.70;0.70;;;;;;;;;;4412050;28;20040;-57
2023/02/27 02:25:23;;;;;;;0.90;0.90;;;;;;;;;;4413014;28;20588;-60
2023/02/27 02:27:49;;;;;;;1.15;1.05;;;;;;;;;;4399804;29;20564;-57
2023/02/27 02:29:59;;;;;;;1.00;0.90;;;;;;;;;;4414450;28;20039;-57
2023/02/27 02:32:25;;;;;;;1.20;0.90;;;;;;;;;;4416242;28;20523;-57
2023/02/27 02:34:54;;;;;;;0.90;0.90;;;;;;;;;;4410425;28;20798;-58
2023/02/27 02:37:11;;;;;;;1.10;1.00;;;;;;;;;;4405170;28;20155;-57
2023/02/27 02:39:26;;;;;;;0.82;0.82;;;;;;;;;;4404023;28;20049;-57
2023/02/27 02:41:59;;;;;;;1.00;0.90;;;;;;;;;;4414512;28;20040;-57
2023/02/27 02:44:09;;;;;;;0.90;0.90;;;;;;;;;;4412649;28;20079;-57
2023/02/27 02:46:35;;;;;;;1.13;0.95;;;;;;;;;;4413148;28;20043;-57
2023/02/27 02:48:54;;;;;;;1.10;1.00;;;;;;;;;;4410244;28;20599;-57
2023/02/27 02:51:14;;;;;;;1.00;0.90;;;;;;;;;;4428508;28;20130;-58
2023/02/27 02:53:29;;;;;;;0.95;0.90;;;;;;;;;;4417660;28;20048;-57
2023/02/27 02:55:48;;;;;;;1.10;1.00;;;;;;;;;;4409879;28;20041;-57
2023/02/27 02:58:11;;;;;;;0.95;0.85;;;;;;;;;;4402945;28;20867;-58
2023/02/27 03:00:24;;;;;;;1.23;0.95;;;;;;;;;;4401415;28;20702;-58
2023/02/27 03:02:38;;;;;;;0.80;0.80;;;;;;;;;;4418640;28;20040;-57
2023/02/27 03:04:52;;;;;;;0.80;0.80;;;;;;;;;;4414760;28;20042;-57
2023/02/27 03:07:09;;;;;;;1.15;1.00;;;;;;;;;;4429537;28;20035;-57
2023/02/27 03:09:19;;;;;;;1.02;0.98;;;;;;;;;;4418370;28;20134;-57
2023/02/27 03:11:31;;;;;;;1.08;0.98;;;;;;;;;;4413366;28;20050;-57
2023/02/27 03:13:51;;;;;;;0.80;0.80;;;;;;;;;;4411783;28;20078;-58
2023/02/27 03:16:01;;;;;;;1.10;0.90;;;;;;;;;;4402426;28;20041;-56
2023/02/27 03:18:17;;;;;;;0.82;0.80;;;;;;;;;;4411774;28;20626;-57
2023/02/27 03:20:31;;;;;;;1.10;1.00;;;;;;;;;;4410595;28;20571;-57
2023/02/27 03:22:43;;;;;;;1.00;0.90;;;;;;;;;;4411009;28;20810;-58
2023/02/27 03:24:56;;;;;;;1.13;0.90;;;;;;;;;;4413693;28;20032;-58
2023/02/27 03:27:07;;;;;;;0.90;0.90;;;;;;;;;;4427263;28;20039;-58
2023/02/27 03:29:38;;;;;;;0.70;0.70;;;;;;;;;;4415765;28;20118;-57
2023/02/27 03:31:52;;;;;;;0.98;0.95;;;;;;;;;;4413027;28;20143;-57
2023/02/27 03:34:10;;;;;;;1.10;0.95;;;;;;;;;;4413639;28;20603;-57
2023/02/27 03:36:27;;;;;;;1.00;0.90;;;;;;;;;;4413090;28;20599;-57
2023/02/27 03:38:52;;;;;;;1.08;0.90;;;;;;;;;;4414009;28;20036;-57
2023/02/27 03:41:02;;;;;;;0.75;0.75;;;;;;;;;;4411170;28;20103;-58
2023/02/27 03:43:30;;;;;;;0.80;0.80;;;;;;;;;;4414799;28;20040;-57
2023/02/27 03:45:55;;;;;;;0.95;0.88;;;;;;;;;;4419225;28;20046;-57
2023/02/27 03:48:06;;;;;;;1.13;1.02;;;;;;;;;;4418860;28;20035;-58
2023/02/27 03:50:16;;;;;;;1.10;1.00;;;;;;;;;;4404311;28;20055;-57
2023/02/27 03:52:28;;;;;;;0.98;0.90;;;;;;;;;;4403993;28;20072;-57
2023/02/27 03:54:42;;;;;;;1.00;0.90;;;;;;;;;;4417588;28;20123;-57
2023/02/27 03:57:05;;;;;;;0.90;0.90;;;;;;;;;;4403158;28;20029;-57
2023/02/27 03:59:16;;;;;;;0.80;0.80;;;;;;;;;;4397265;28;20049;-57
2023/02/27 04:01:31;;;;;;;1.08;0.80;;;;;;;;;;4415405;28;20048;-57
2023/02/27 04:03:46;;;;;;;0.93;0.93;;;;;;;;;;4412937;28;20047;-57
2023/02/27 04:07:21;;;;;;;0.80;0.80;;;;;;;;;;4403224;28;20045;-57
2023/02/27 04:08:49;;;;;;;0.82;0.80;;;;;;;;;;4414982;28;20110;-57
2023/02/27 04:11:26;;;;;;;0.88;0.88;;;;;;;;;;4420085;28;20046;-57
2023/02/27 04:14:02;;;;;;;0.68;0.65;;;;;;;;;;4406109;28;20638;-57
2023/02/27 04:16:21;;;;;;;0.80;0.80;;;;;;;;;;4410611;28;20048;-57
2023/02/27 04:18:57;;;;;;;1.20;1.10;;;;;;;;;;4410509;28;20116;-57
2023/02/27 04:21:14;;;;;;;1.08;0.85;;;;;;;;;;4411412;28;20048;-57
2023/02/27 04:23:45;;;;;;;0.80;0.80;;;;;;;;;;4411176;28;20134;-57
2023/02/27 04:26:14;;;;;;;1.10;0.80;;;;;;;;;;4410947;28;20091;-57
2023/02/27 04:28:27;;;;;;;1.10;1.00;;;;;;;;;;4413290;28;20134;-58
2023/02/27 04:30:44;;;;;;;0.70;0.70;;;;;;;;;;4415026;28;20044;-57
2023/02/27 04:32:54;;;;;;;0.90;0.85;;;;;;;;;;4414977;28;20040;-57
2023/02/27 04:35:24;;;;;;;0.93;0.93;;;;;;;;;;4416364;28;20049;-57
2023/02/27 04:37:47;;;;;;;0.93;0.80;;;;;;;;;;4413825;28;20052;-57
2023/02/27 04:40:05;;;;;;;0.98;0.88;;;;;;;;;;4412869;28;20064;-57
2023/02/27 04:42:17;;;;;;;0.80;0.80;;;;;;;;;;4415156;28;20025;-57
2023/02/27 04:44:28;;;;;;;0.80;0.80;;;;;;;;;;4416634;28;20044;-57
2023/02/27 04:46:41;;;;;;;0.70;0.70;;;;;;;;;;4417324;28;20047;-56
2023/02/27 04:48:55;;;;;;;0.80;0.80;;;;;;;;;;4416300;28;20043;-57
2023/02/27 04:51:09;;;;;;;0.75;0.75;;;;;;;;;;4415368;28;20036;-57
2023/02/27 04:53:29;;;;;;;0.80;0.80;;;;;;;;;;4415891;28;20165;-56
2023/02/27 04:55:46;;;;;;;0.80;0.80;;;;;;;;;;4415693;28;20036;-58
2023/02/27 04:58:02;;;;;;;1.10;1.00;;;;;;;;;;4417334;28;20040;-57
2023/02/27 05:00:13;;;;;;;1.00;0.90;;;;;;;;;;4413639;28;20052;-57
2023/02/27 05:02:27;;;;;;;0.93;0.90;;;;;;;;;;4414905;28;20114;-57
2023/02/27 05:04:39;;;;;;;0.93;0.85;;;;;;;;;;4416686;28;20600;-59
2023/02/27 05:06:52;;;;;;;1.00;0.90;;;;;;;;;;4405701;28;20168;-57
2023/02/27 05:09:02;;;;;;;1.60;1.50;;;;;;;;;;4415777;28;20044;-57
2023/02/27 05:11:15;;;;;;;1.60;1.30;;;;;;;;;;4415891;28;20036;-57
2023/02/27 05:13:32;;;;;;;1.48;1.33;;;;;;;;;;4414563;28;20032;-57
2023/02/27 05:15:46;;;;;;;0.93;0.88;;;;;;;;;;4415384;28;20048;-59
2023/02/27 05:18:02;;;;;;;1.00;0.90;;;;;;;;;;4413455;28;20135;-57
2023/02/27 05:20:13;;;;;;;1.10;1.00;;;;;;;;;;4414426;28;20048;-57
2023/02/27 05:22:32;;;;;;;1.27;0.98;;;;;;;;;;4415481;28;20031;-57
2023/02/27 05:24:50;;;;;;;1.20;1.02;;;;;;;;;;4414813;28;20138;-57
2023/02/27 05:27:08;;;;;;;0.93;0.82;;;;;;;;;;4415856;28;20082;-57
2023/02/27 05:29:51;;;;;;;1.15;1.00;;;;;;;;;;4413497;28;20604;-56
2023/02/27 05:32:20;;;;;;;1.00;0.80;;;;;;;;;;4395785;28;20048;-57
2023/02/27 05:34:34;;;;;;;1.10;1.00;;;;;;;;;;4413926;28;20095;-57
2023/02/27 05:36:46;;;;;;;1.05;0.98;;;;;;;;;;4415366;28;20040;-57
2023/02/27 05:39:01;;;;;;;1.00;0.90;;;;;;;;;;4414768;28;20035;-57
2023/02/27 05:41:16;;;;;;;1.10;1.00;;;;;;;;;;4413417;28;20087;-57
2023/02/27 05:43:47;;;;;;;1.23;1.13;;;;;;;;;;4415821;28;20068;-58
2023/02/27 05:46:06;;;;;;;1.10;1.00;;;;;;;;;;4416125;28;20049;-57
2023/02/27 05:48:19;;;;;;;1.27;1.17;;;;;;;;;;4417648;28;20111;-57
2023/02/27 05:50:32;;;;;;;1.30;1.20;;;;;;;;;;4412794;28;20142;-57
2023/02/27 05:52:43;;;;;;;1.55;1.25;;;;;;;;;;4413546;28;21016;-57
2023/02/27 05:54:57;;;;;;;1.20;1.10;;;;;;;;;;4428498;28;20579;-58
2023/02/27 05:57:13;;;;;;;1.15;1.05;;;;;;;;;;4413665;28;20116;-58
2023/02/27 05:59:33;;;;;;;1.35;1.08;;;;;;;;;;4414328;28;20044;-57
2023/02/27 06:01:43;;;;;;;1.08;0.98;;;;;;;;;;4412888;28;20045;-57
2023/02/27 06:03:54;;;;;;;1.00;0.90;;;;;;;;;;4414786;28;20365;-57
2023/02/27 06:06:06;;;;;;;0.82;0.82;;;;;;;;;;4412143;28;20036;-57
2023/02/27 06:08:16;;;;;;;1.02;0.90;;;;;;;;;;4412451;28;20044;-57
2023/02/27 06:10:26;;;;;;;1.30;1.00;;;;;;;;;;4414817;28;20495;-57
2023/02/27 06:12:36;;;;;;;0.95;0.90;;;;;;;;;;4403781;28;20052;-57
2023/02/27 06:14:47;;;;;;;0.80;0.80;;;;;;;;;;4412805;28;20044;-58
2023/02/27 06:16:57;;;;;;;1.20;1.10;;;;;;;;;;4413715;28;20131;-57
2023/02/27 06:19:07;;;;;;;1.17;1.08;;;;;;;;;;4415512;28;20035;-58
2023/02/27 06:21:18;;;;;;;1.38;1.25;;;;;;;;;;4413746;28;20063;-57
2023/02/27 06:23:28;;;;;;;1.75;1.40;;;;;;;;;;4412472;28;20076;-56
2023/02/27 06:25:40;;;;;;;1.85;1.38;;;;;;;;;;4412839;28;20036;-59
2023/02/27 06:27:51;;;;;;;1.40;1.30;;;;;;;;;;4415818;28;20040;-59
2023/02/27 06:30:01;;;;;;;1.67;1.35;;;;;;;;;;4411938;28;20386;-58
2023/02/27 06:32:11;;;;;;;1.20;1.10;;;;;;;;;;4415147;28;20040;-60
2023/02/27 06:34:22;;;;;;;1.20;1.00;;;;;;;;;;4415124;28;20047;-59
2023/02/27 06:36:32;;;;;;;0.80;0.80;;;;;;;;;;4413418;28;20046;-58
2023/02/27 06:38:42;;;;;;;1.05;0.95;;;;;;;;;;4412882;28;20050;-58
2023/02/27 06:40:53;;;;;;;1.02;0.95;;;;;;;;;;4415325;28;20172;-58
2023/02/27 06:43:03;;;;;;;0.95;0.90;;;;;;;;;;4413270;28;20060;-58
2023/02/27 06:45:14;;;;;;;1.10;1.00;;;;;;;;;;4423605;28;20047;-57
2023/02/27 06:47:24;;;;;;;1.20;1.10;;;;;;;;;;4413129;28;20032;-57
2023/02/27 06:49:35;;;;;;;1.02;1.00;;;;;;;;;;4414076;28;20058;-57
2023/02/27 06:51:45;;;;;;;0.90;0.90;;;;;;;;;;4395610;28;20391;-58
2023/02/27 06:53:56;;;;;;;1.05;0.95;;;;;;;;;;4414771;28;20119;-58
2023/02/27 06:56:06;;;;;;;1.40;1.10;;;;;;;;;;4414069;28;20405;-57
2023/02/27 06:58:16;;;;;;;1.10;1.00;;;;;;;;;;4411483;28;20588;-58
2023/02/27 07:00:28;;;;;;;1.08;1.00;;;;;;;;;;4413311;28;20056;-58
2023/02/27 07:02:38;;;;;;;1.17;1.08;;;;;;;;;;4411373;28;20040;-57
2023/02/27 07:04:48;;;;;;;1.02;1.00;;;;;;;;;;4403339;28;20501;-57
2023/02/27 07:06:59;;;;;;;1.38;1.10;;;;;;;;;;4411238;28;20041;-59
2023/02/27 07:09:09;;;;;;;1.70;1.10;;;;;;;;;;4413032;28;20488;-57
2023/02/27 07:11:20;;;;;;;1.10;1.00;;;;;;;;;;4412659;28;20528;-59
2023/02/27 07:13:30;;;;;;;1.33;1.10;;;;;;;;;;4412563;28;20147;-58
2023/02/27 07:15:41;;;;;;;2.17;1.35;;;;;;;;;;4414964;28;20047;-57
2023/02/27 07:17:53;;;;;;;1.48;1.30;;;;;;;;;;4412573;28;20096;-58
2023/02/27 07:20:05;;;;;;;1.30;1.20;;;;;;;;;;4413094;28;20048;-58
2023/02/27 07:22:15;;;;;;;1.30;1.20;;;;;;;;;;4427111;28;20043;-57
2023/02/27 07:24:25;;;;;;;1.30;1.20;;;;;;;;;;4411651;28;20405;-58
2023/02/27 07:26:36;;;;;;;1.20;1.10;;;;;;;;;;4412333;28;21077;-57
2023/02/27 07:28:46;;;;;;;1.02;1.00;;;;;;;;;;4412395;28;20123;-56
2023/02/27 07:30:56;;;;;;;1.35;1.15;;;;;;;;;;4412455;28;20047;-58
2023/02/27 07:33:07;;;;;;;1.23;0.98;;;;;;;;;;4415734;28;20571;-58
2023/02/27 07:35:18;;;;;;;1.10;1.00;;;;;;;;;;4412498;28;20476;-57
2023/02/27 07:37:28;;;;;;;1.20;1.10;;;;;;;;;;4398784;28;20040;-58
2023/02/27 07:39:39;;;;;;;1.02;0.93;;;;;;;;;;4413469;28;20037;-57
2023/02/27 07:41:49;;;;;;;1.08;0.98;;;;;;;;;;4411523;28;20430;-56
2023/02/27 07:44:02;;;;;;;1.20;1.05;;;;;;;;;;4414695;28;20653;-58
2023/02/27 07:46:12;;;;;;;1.10;1.00;;;;;;;;;;4411974;28;20123;-57
2023/02/27 07:48:23;;;;;;;1.35;1.20;;;;;;;;;;4413202;28;20063;-58
2023/02/27 07:50:33;;;;;;;1.27;1.10;;;;;;;;;;4413803;28;20032;-58
2023/02/27 07:52:43;;;;;;;1.20;1.10;;;;;;;;;;4412085;28;20419;-58
2023/02/27 07:54:54;;;;;;;1.33;1.13;;;;;;;;;;4411855;28;20536;-58
2023/02/27 07:57:04;;;;;;;1.23;1.13;;;;;;;;;;4411593;28;20088;-59
2023/02/27 07:59:15;;;;;;;1.25;1.15;;;;;;;;;;4413673;28;20040;-59
2023/02/27 08:01:25;;;;;;;1.10;1.00;;;;;;;;;;4414056;28;20052;-58
2023/02/27 08:03:38;;;;;;;1.23;1.10;;;;;;;;;;4410029;28;20036;-58
2023/02/27 08:05:48;;;;;;;1.58;1.20;;;;;;;;;;4414132;28;20079;-58
2023/02/27 08:07:59;;;;;;;1.30;1.20;;;;;;;;;;4411795;28;20111;-59
2023/02/27 08:10:10;;;;;;;1.80;1.20;;;;;;;;;;4414618;28;20188;-59
2023/02/27 08:12:21;;;;;;;1.30;1.15;;;;;;;;;;4411870;28;20123;-58
2023/02/27 08:14:31;;;;;;;1.55;1.10;;;;;;;;;;4413487;28;20509;-59
2023/02/27 08:16:41;;;;;;;1.40;1.13;;;;;;;;;;4411266;28;20583;-59
2023/02/27 08:18:52;;;;;;;1.25;1.10;;;;;;;;;;4409405;28;20131;-57
2023/02/27 08:21:03;;;;;;;1.20;1.10;;;;;;;;;;4408985;28;20044;-59
2023/02/27 08:23:14;;;;;;;1.10;1.00;;;;;;;;;;4418222;28;20039;-59
2023/02/27 08:25:24;;;;;;;1.13;1.02;;;;;;;;;;4418025;28;20945;-59
2023/02/27 08:27:34;;;;;;;1.23;1.10;;;;;;;;;;4408560;28;20028;-58
2023/02/27 08:29:45;;;;;;;1.13;1.00;;;;;;;;;;4411374;28;20085;-59
2023/02/27 08:31:55;;;;;;;1.40;1.20;;;;;;;;;;4411685;28;20040;-58
2023/02/27 08:34:05;;;;;;;1.27;1.00;;;;;;;;;;4411120;28;20553;-59
2023/02/27 08:36:16;;;;;;;1.25;1.10;;;;;;;;;;4409618;28;20024;-59
2023/02/27 08:38:26;;;;;;;1.30;1.10;;;;;;;;;;4410071;28;20051;-59
2023/02/27 08:40:36;;;;;;;1.20;1.00;;;;;;;;;;4413092;28;20152;-58
2023/02/27 08:42:47;;;;;;;1.00;0.90;;;;;;;;;;4409614;28;20032;-59
2023/02/27 08:44:57;;;;;;;1.40;1.10;;;;;;;;;;4413270;28;20051;-59
2023/02/27 08:47:07;;;;;;;1.50;1.00;;;;;;;;;;4411403;28;20141;-60
2023/02/27 08:49:19;;;;;;;1.30;1.20;;;;;;;;;;4426820;28;20051;-59
2023/02/27 08:51:29;;;;;;;2.20;1.40;;;;;;;;;;4410939;28;20045;-59
2023/02/27 08:53:39;;;;;;;1.38;1.10;;;;;;;;;;4411605;28;20608;-59
2023/02/27 08:55:50;;;;;;;1.20;1.08;;;;;;;;;;4412252;28;20047;-60
2023/02/27 08:58:01;;;;;;;1.48;1.20;;;;;;;;;;4412871;28;20064;-59
2023/02/27 09:00:13;;;;;;;2.65;2.15;;;;;;;;;;4411440;28;20673;-60
2023/02/27 09:02:25;;;;;;;8.07;6.13;;;;;;;;;;4413649;28;20111;-58
2023/02/27 09:04:35;;;;;;;2.45;2.25;;;;;;;;;;4412388;28;20052;-58
2023/02/27 09:06:45;;;;;;;1.70;1.30;;;;;;;;;;4411013;28;20453;-59
2023/02/27 09:08:57;;;;;;;6.20;4.80;;;;;;;;;;4412895;28;20036;-58
2023/02/27 09:11:07;;;;;;;5.90;4.50;;;;;;;;;;4412899;28;20048;-59
2023/02/27 09:13:18;;;;;;;5.43;4.32;;;;;;;;;;4411658;28;20106;-59
2023/02/27 09:15:30;;;;;;;7.25;5.68;;;;;;;;;;4414905;28;20594;-59
2023/02/27 09:17:40;;;;;;;1.35;1.20;;;;;;;;;;4415623;28;20560;-59
2023/02/27 09:19:51;;;;;;;1.23;1.02;;;;;;;;;;4413487;28;20541;-59
2023/02/27 09:22:01;;;;;;;1.70;1.17;;;;;;;;;;4414677;28;20042;-59
2023/02/27 09:24:11;;;;;;;1.20;1.00;;;;;;;;;;4416640;28;20047;-58
2023/02/27 09:26:22;;;;;;;0.60;0.50;;;;;;;;;;4412905;28;20064;-59
2023/02/27 09:28:32;;;;;;;4.50;3.03;;;;;;;;;;4412360;28;20044;-59
2023/02/27 09:30:42;;;;;;;1.20;1.10;;;;;;;;;;4413111;28;20062;-59
2023/02/27 09:32:53;;;;;;;2.00;1.48;;;;;;;;;;4411741;28;20519;-58
2023/02/27 09:35:03;;;;;;;4.38;3.05;;;;;;;;;;4412414;28;20456;-58
2023/02/27 09:37:14;;;;;;;9.38;5.70;;;;;;;;;;4404495;28;20028;-58
2023/02/27 09:39:27;;;;;;;9.40;6.45;;;;;;;;;;4413252;28;20235;-59
2023/02/27 09:41:56;;;;;;;9.57;6.20;;;;;;;;;;4412902;28;20832;-59
2023/02/27 09:44:25;;;;;;;8.65;5.63;;;;;;;;;;4412035;28;20032;-59
2023/02/27 09:46:36;;;;;;;1.42;1.33;;;;;;;;;;4414225;28;20047;-59
2023/02/27 09:48:48;;;;;;;1.63;1.30;;;;;;;;;;4412623;28;20040;-59
2023/02/27 09:50:59;;;;;;;1.10;1.00;;;;;;;;;;4402789;29;20048;-62
2023/02/27 09:53:25;;;;;;;0.93;0.90;;;;;;;;;;4426846;28;20516;-59
2023/02/27 09:55:38;;;;;;;0.98;0.88;;;;;;;;;;4413704;28;20622;-61
2023/02/27 09:57:53;;;;;;;1.10;1.00;;;;;;;;;;4411689;28;20635;-60
2023/02/27 10:00:06;;;;;;;1.02;0.93;;;;;;;;;;4414436;28;20079;-59
2023/02/27 10:02:17;;;;;;;1.00;1.00;;;;;;;;;;4414316;28;20036;-59
2023/02/27 10:04:51;;;;;;;0.95;0.90;;;;;;;;;;4417574;28;20506;-59
2023/02/27 10:07:01;;;;;;;0.88;0.82;;;;;;;;;;4409858;28;20052;-59
2023/02/27 10:09:21;;;;;;;1.38;0.80;;;;;;;;;;4412805;28;20040;-58
2023/02/27 10:11:35;;;;;;;0.85;0.63;;;;;;;;;;4412247;28;21204;-59
2023/02/27 10:13:48;;;;;;;1.23;0.70;;;;;;;;;;4414208;28;20082;-58
2023/02/27 10:15:59;;;;;;;0.85;0.68;;;;;;;;;;4414090;28;20103;-58
2023/02/27 10:18:11;;;;;;;1.10;0.80;;;;;;;;;;4414619;28;20048;-59
2023/02/27 10:20:29;;;;;;;0.65;0.63;;;;;;;;;;4413602;28;20040;-58
2023/02/27 10:22:42;;;;;;;1.17;0.70;;;;;;;;;;4412503;28;20594;-59
2023/02/27 10:25:15;;;;;;;0.77;0.70;;;;;;;;;;4424584;28;20128;-58
2023/02/27 10:27:26;;;;;;;0.70;0.70;;;;;;;;;;4409449;28;20527;-59
2023/02/27 10:29:38;;;;;;;0.70;0.70;;;;;;;;;;4413844;28;20040;-58
2023/02/27 10:31:54;;;;;;;0.70;0.70;;;;;;;;;;4414487;28;20043;-59
2023/02/27 10:34:04;;;;;;;0.60;0.60;;;;;;;;;;4414561;28;20042;-58
2023/02/27 10:36:17;;;;;;;0.98;0.70;;;;;;;;;;4412287;28;20053;-59
2023/02/27 10:38:31;;;;;;;1.20;0.63;;;;;;;;;;4413599;28;20464;-59
2023/02/27 10:40:42;;;;;;;0.80;0.73;;;;;;;;;;4402317;28;20048;-59
2023/02/27 10:42:53;;;;;;;0.60;0.50;;;;;;;;;;4414067;28;20040;-58
2023/02/27 10:45:04;;;;;;;0.60;0.52;;;;;;;;;;4411338;28;20966;-59
2023/02/27 10:47:14;;;;;;;0.52;0.50;;;;;;;;;;4413580;28;20103;-59
2023/02/27 10:49:25;;;;;;;0.93;0.63;;;;;;;;;;4410189;28;20043;-58
2023/02/27 10:51:35;;;;;;;0.80;0.50;;;;;;;;;;4412934;28;20908;-58
2023/02/27 10:53:46;;;;;;;0.98;0.63;;;;;;;;;;4413339;28;20624;-58
2023/02/27 10:56:01;;;;;;;0.65;0.55;;;;;;;;;;4413888;28;20103;-58
2023/02/27 10:58:17;;;;;;;0.70;0.50;;;;;;;;;;4411828;28;20040;-59
2023/02/27 11:00:44;;;;;;;0.82;0.70;;;;;;;;;;4412134;28;20112;-59
2023/02/27 11:02:54;;;;;;;;;;;;;;;;;;4414469;28;20547;-59
2023/02/27 11:05:06;;;;;;;0.87;0.60;;;;;;;;;;4413131;28;19923;-58
2023/02/27 11:07:24;;;;;;;0.88;0.60;;;;;;;;;;4414555;28;20390;-58
2023/02/27 11:09:35;;;;;;;0.57;0.52;;;;;;;;;;4396942;29;20127;-59
2023/02/27 11:11:45;;;;;;;0.80;0.57;;;;;;;;;;4412680;28;20316;-59
2023/02/27 11:14:14;;;;;;;0.70;0.60;;;;;;;;;;4413906;28;20025;-57
2023/02/27 11:16:24;;;;;;;0.50;0.50;;;;;;;;;;4413064;28;20037;-58
2023/02/27 11:18:35;;;;;;;0.70;0.70;;;;;;;;;;4412732;28;20052;-60
2023/02/27 11:20:49;;;;;;;1.05;0.60;;;;;;;;;;4415641;28;20075;-58
2023/02/27 11:23:17;;;;;;;0.60;0.60;;;;;;;;;;4412896;28;21484;-59
2023/02/27 11:25:27;;;;;;;1.35;0.60;;;;;;;;;;4414725;28;20331;-59
2023/02/27 11:27:37;;;;;;;1.38;0.68;;;;;;;;;;4411583;28;20044;-59
2023/02/27 11:30:14;;;;;;;0.68;0.50;;;;;;;;;;4410331;28;20052;-58
2023/02/27 11:32:43;;;;;;;1.02;0.50;;;;;;;;;;4408900;28;20052;-58
2023/02/27 11:34:53;;;;;;;0.95;0.65;;;;;;;;;;4412917;28;21142;-59
2023/02/27 11:37:22;;;;;;;0.43;0.43;;;;;;;;;;4414368;28;20044;-58
2023/02/27 11:39:38;;;;;;;0.68;0.50;;;;;;;;;;4418500;28;20127;-58
2023/02/27 11:41:48;;;;;;;0.80;0.60;;;;;;;;;;4411498;28;20139;-57
2023/02/27 11:44:00;;;;;;;0.55;0.52;;;;;;;;;;4408034;28;20052;-58
2023/02/27 11:46:12;;;;;;;0.75;0.60;;;;;;;;;;4410823;28;20809;-58
2023/02/27 11:48:24;;;;;;;1.05;0.50;;;;;;;;;;4414213;28;20122;-58
2023/02/27 11:50:38;;;;;;;0.88;0.60;;;;;;;;;;4401673;28;20114;-59
2023/02/27 11:53:06;;;;;;;0.85;0.57;;;;;;;;;;4411790;28;21083;-59
2023/02/27 11:55:20;;;;;;;0.63;0.50;;;;;;;;;;4411218;28;20044;-59
2023/02/27 11:57:33;;;;;;;0.75;0.40;;;;;;;;;;4412185;28;20845;-58
2023/02/27 11:59:48;;;;;;;0.50;0.50;;;;;;;;;;4411050;28;20036;-59
2023/02/27 12:02:11;;;;;;;0.95;0.50;;;;;;;;;;4413008;28;20383;-57
2023/02/27 12:04:40;;;;;;;0.70;0.50;;;;;;;;;;4413238;28;20111;-59
2023/02/27 12:06:57;;;;;;;0.90;0.52;;;;;;;;;;4411110;28;20084;-59
2023/02/27 12:09:20;;;;;;;1.25;0.70;;;;;;;;;;4413994;28;20706;-59
2023/02/27 12:11:33;;;;;;;0.60;0.60;;;;;;;;;;4411705;28;20131;-58
2023/02/27 12:13:46;;;;;;;0.52;0.47;;;;;;;;;;4414801;28;20080;-58
2023/02/27 12:15:56;;;;;;;0.80;0.60;;;;;;;;;;4407732;28;20085;-59
2023/02/27 12:18:09;;;;;;;0.73;0.60;;;;;;;;;;4411649;28;20564;-59
2023/02/27 12:20:26;;;;;;;0.50;0.50;;;;;;;;;;4414235;28;20068;-58
2023/02/27 12:22:39;;;;;;;0.55;0.50;;;;;;;;;;4415821;28;20991;-59
2023/02/27 12:24:51;;;;;;;0.80;0.50;;;;;;;;;;4411933;28;20080;-59
2023/02/27 12:27:20;;;;;;;0.80;0.60;;;;;;;;;;4412602;28;20048;-59
2023/02/27 12:29:37;;;;;;;0.40;0.40;;;;;;;;;;4410359;28;20784;-58
2023/02/27 12:31:48;;;;;;;;;;;;;;;;;;4426619;28;20603;-59
2023/02/27 12:34:07;;;;;;;1.10;0.60;;;;;;;;;;4411056;28;19923;-59
2023/02/27 12:36:17;;;;;;;0.50;0.40;;;;;;;;;;4411305;28;20048;-59
2023/02/27 12:38:27;;;;;;;0.43;0.43;;;;;;;;;;4410981;28;20399;-62
2023/02/27 12:40:49;;;;;;;0.50;0.50;;;;;;;;;;4410413;28;20056;-59
2023/02/27 12:42:59;;;;;;;0.50;0.40;;;;;;;;;;4410434;28;20032;-60
2023/02/27 12:45:28;;;;;;;0.63;0.60;;;;;;;;;;4411685;28;20055;-59
2023/02/27 12:47:41;;;;;;;0.40;0.40;;;;;;;;;;4412836;28;20045;-59
2023/02/27 12:50:01;;;;;;;0.77;0.45;;;;;;;;;;4419485;28;20040;-60
2023/02/27 12:52:30;;;;;;;0.50;0.50;;;;;;;;;;4415538;28;20708;-60
2023/02/27 12:54:46;;;;;;;1.02;0.75;;;;;;;;;;4416024;28;20117;-58
2023/02/27 12:56:56;;;;;;;0.60;0.60;;;;;;;;;;4414415;28;20024;-58
2023/02/27 12:59:17;;;;;;;0.50;0.50;;;;;;;;;;4413843;28;20040;-59
2023/02/27 13:01:42;;;;;;;0.52;0.50;;;;;;;;;;4414123;28;20024;-59
2023/02/27 13:03:56;;;;;;;0.45;0.45;;;;;;;;;;4415376;28;20033;-59
2023/02/27 13:06:20;;;;;;;1.13;0.70;;;;;;;;;;4416473;28;20651;-59
2023/02/27 13:08:37;;;;;;;0.60;0.60;;;;;;;;;;4416539;28;20146;-58
2023/02/27 13:10:50;;;;;;;0.70;0.60;;;;;;;;;;4416228;28;20052;-59
2023/02/27 13:13:09;;;;;;;1.05;0.68;;;;;;;;;;4413265;28;20041;-59
2023/02/27 13:15:26;;;;;;;0.75;0.50;;;;;;;;;;4426043;28;20069;-58
2023/02/27 13:17:40;;;;;;;0.60;0.60;;;;;;;;;;4413869;28;20040;-58
2023/02/27 13:19:55;;;;;;;0.90;0.60;;;;;;;;;;4413794;28;20040;-59
2023/02/27 13:22:18;;;;;;;0.82;0.57;;;;;;;;;;4413766;28;20112;-59
2023/02/27 13:24:29;;;;;;;0.60;0.60;;;;;;;;;;4415200;28;20059;-59
2023/02/27 13:26:45;;;;;;;0.93;0.50;;;;;;;;;;4416376;28;20723;-58